createdAt,value
2018-02-13T00:00:37.368Z,0.90
2018-02-13T00:01:37.380Z,0.88
2018-02-13T00:02:37.391Z,0.97
2018-02-13T00:03:37.406Z,0.92
2018-02-13T00:04:37.422Z,0.86
2018-02-13T00:05:37.433Z,0.97
2018-02-13T00:06:37.455Z,0.80
2018-02-13T00:07:37.466Z,0.89
2018-02-13T00:08:37.476Z,0.85
2018-02-13T00:09:37.489Z,0.85
2018-02-13T00:10:37.505Z,0.76
2018-02-13T00:11:37.513Z,0.82
2018-02-13T00:12:37.523Z,0.85
2018-02-13T00:13:37.541Z,1.01
2018-02-13T00:14:37.553Z,0.96
2018-02-13T00:15:37.568Z,0.88
2018-02-13T00:16:37.578Z,0.85
2018-02-13T00:17:37.591Z,0.97
2018-02-13T00:18:37.604Z,0.94
2018-02-13T00:19:37.625Z,0.89
2018-02-13T00:20:37.631Z,0.82
2018-02-13T00:21:37.646Z,0.78
2018-02-13T00:22:37.664Z,0.79
2018-02-13T00:23:37.675Z,0.82
2018-02-13T00:24:37.685Z,0.79
2018-02-13T00:25:37.701Z,0.88
2018-02-13T00:26:37.710Z,0.92
2018-02-13T00:27:37.726Z,0.97
2018-02-13T00:28:37.741Z,0.90
2018-02-13T00:29:37.753Z,0.94
2018-02-13T00:30:37.761Z,0.86
2018-02-13T00:31:37.775Z,0.96
2018-02-13T00:32:37.797Z,0.86
2018-02-13T00:33:37.806Z,0.98
2018-02-13T00:34:37.825Z,0.85
2018-02-13T00:35:37.831Z,1.03
2018-02-13T00:36:37.843Z,1.06
2018-02-13T00:37:37.855Z,1.00
2018-02-13T00:38:37.865Z,1.06
2018-02-13T00:39:37.886Z,1.10
2018-02-13T00:40:37.897Z,1.03
2018-02-13T00:41:37.908Z,1.00
2018-02-13T00:42:37.922Z,1.04
2018-02-13T00:43:37.933Z,0.98
2018-02-13T00:44:37.950Z,1.04
2018-02-13T00:45:37.962Z,0.92
2018-02-13T00:46:37.971Z,1.00
2018-02-13T00:47:37.984Z,1.07
2018-02-13T00:48:38.004Z,1.03
2018-02-13T00:49:38.017Z,0.96
2018-02-13T00:50:38.025Z,0.88
2018-02-13T00:51:38.048Z,0.85
2018-02-13T00:52:38.055Z,0.88
2018-02-13T00:53:38.072Z,0.92
2018-02-13T00:54:38.086Z,0.90
2018-02-13T00:55:38.097Z,0.83
2018-02-13T00:56:38.110Z,0.82
2018-02-13T00:57:38.118Z,0.82
2018-02-13T00:58:38.132Z,0.76
2018-02-13T00:59:38.145Z,0.75
2018-02-13T01:00:38.166Z,0.78
2018-02-13T01:01:38.170Z,0.78
2018-02-13T01:02:38.186Z,0.80
2018-02-13T01:03:38.199Z,0.80
2018-02-13T01:04:38.213Z,0.79
2018-02-13T01:05:38.229Z,0.68
2018-02-13T01:06:38.241Z,0.75
2018-02-13T01:07:38.249Z,0.72
2018-02-13T01:08:38.266Z,0.71
2018-02-13T01:09:38.276Z,0.70
2018-02-13T01:10:38.291Z,0.67
2018-02-13T01:11:38.303Z,0.65
2018-02-13T01:12:38.315Z,0.68
2018-02-13T01:13:38.332Z,0.72
2018-02-13T01:14:38.343Z,0.71
2018-02-13T01:15:38.354Z,0.71
2018-02-13T01:16:38.367Z,0.78
2018-02-13T01:17:38.385Z,0.71
2018-02-13T01:18:38.395Z,0.72
2018-02-13T01:19:38.414Z,0.78
2018-02-13T01:20:38.423Z,0.82
2018-02-13T01:21:38.437Z,0.75
2018-02-13T01:22:38.454Z,0.75
2018-02-13T01:23:38.459Z,0.75
2018-02-13T01:24:38.474Z,0.82
2018-02-13T01:25:38.488Z,0.75
2018-02-13T01:26:38.500Z,0.79
2018-02-13T01:27:38.514Z,0.83
2018-02-13T01:28:38.525Z,0.79
2018-02-13T01:29:38.538Z,0.80
2018-02-13T01:30:38.555Z,0.80
2018-02-13T01:31:38.573Z,0.76
2018-02-13T01:32:38.577Z,0.79
2018-02-13T01:33:38.592Z,0.76
2018-02-13T01:34:38.602Z,0.71
2018-02-13T01:35:38.639Z,0.75
2018-02-13T01:36:38.637Z,0.80
2018-02-13T01:37:38.646Z,0.76
2018-02-13T01:38:38.663Z,0.72
2018-02-13T01:39:38.670Z,0.70
2018-02-13T01:40:38.685Z,0.70
2018-02-13T01:41:38.708Z,0.72
2018-02-13T01:42:38.712Z,0.67
2018-02-13T01:43:38.726Z,0.65
2018-02-13T01:44:38.735Z,0.67
2018-02-13T01:45:38.749Z,0.60
2018-02-13T01:46:38.758Z,0.64
2018-02-13T01:47:38.788Z,0.68
2018-02-13T01:48:38.792Z,0.68
2018-02-13T01:49:38.823Z,0.71
2018-02-13T01:50:38.831Z,0.78
2018-02-13T01:51:38.840Z,0.71
2018-02-13T01:52:38.856Z,0.75
2018-02-13T01:53:38.853Z,0.71
2018-02-13T01:54:38.864Z,0.71
2018-02-13T01:55:38.878Z,0.76
2018-02-13T01:56:38.891Z,0.67
2018-02-13T01:57:38.903Z,0.70
2018-02-13T01:58:38.914Z,0.68
2018-02-13T01:59:38.931Z,0.78
2018-02-13T02:00:38.942Z,0.72
2018-02-13T02:01:38.955Z,0.70
2018-02-13T02:02:38.987Z,0.76
2018-02-13T02:03:38.989Z,0.75
2018-02-13T02:04:39.006Z,0.72
2018-02-13T02:05:39.008Z,0.64
2018-02-13T02:06:39.025Z,0.71
2018-02-13T02:07:39.038Z,0.79
2018-02-13T02:08:39.056Z,0.72
2018-02-13T02:09:39.067Z,0.70
2018-02-13T02:10:39.072Z,0.71
2018-02-13T02:11:39.090Z,0.78
2018-02-13T02:12:39.100Z,0.79
2018-02-13T02:13:39.112Z,0.76
2018-02-13T02:14:39.122Z,0.79
2018-02-13T02:15:39.149Z,0.80
2018-02-13T02:16:39.159Z,0.78
2018-02-13T02:17:39.164Z,0.79
2018-02-13T02:18:39.177Z,0.78
2018-02-13T02:19:39.192Z,0.76
2018-02-13T02:20:39.201Z,0.92
2018-02-13T02:21:39.221Z,0.85
2018-02-13T02:22:39.228Z,0.85
2018-02-13T02:23:39.253Z,0.79
2018-02-13T02:24:39.256Z,0.79
2018-02-13T02:25:39.288Z,0.76
2018-02-13T02:26:39.304Z,0.79
2018-02-13T02:27:39.308Z,0.79
2018-02-13T02:28:39.317Z,0.86
2018-02-13T02:29:39.340Z,0.82
2018-02-13T02:30:39.351Z,0.78
2018-02-13T02:31:39.342Z,0.80
2018-02-13T02:32:39.360Z,0.70
2018-02-13T02:33:39.372Z,0.83
2018-02-13T02:34:39.401Z,0.83
2018-02-13T02:35:39.409Z,0.78
2018-02-13T02:36:39.413Z,0.82
2018-02-13T02:37:39.474Z,0.89
2018-02-13T02:38:39.436Z,0.89
2018-02-13T02:39:39.449Z,0.82
2018-02-13T02:40:39.493Z,0.90
2018-02-13T02:41:39.474Z,0.90
2018-02-13T02:42:39.487Z,0.82
2018-02-13T02:43:39.512Z,0.79
2018-02-13T02:44:39.513Z,0.79
2018-02-13T02:45:39.529Z,0.83
2018-02-13T02:46:39.544Z,0.82
2018-02-13T02:47:39.551Z,0.86
2018-02-13T02:48:39.565Z,0.75
2018-02-13T02:49:39.593Z,0.67
2018-02-13T02:50:39.595Z,0.46
2018-02-13T02:51:39.606Z,0.48
2018-02-13T02:52:39.632Z,0.48
2018-02-13T02:53:39.630Z,0.49
2018-02-13T02:54:39.645Z,0.42
2018-02-13T02:55:39.656Z,0.48
2018-02-13T02:56:39.674Z,0.33
2018-02-13T02:57:39.685Z,0.42
2018-02-13T02:58:39.696Z,0.23
2018-02-13T02:59:39.706Z,0.25
2018-02-13T03:00:39.723Z,0.16
2018-02-13T03:01:39.734Z,0.16
2018-02-13T03:02:39.745Z,0.15
2018-02-13T03:03:39.759Z,0.30
2018-02-13T03:04:39.774Z,0.31
2018-02-13T03:05:39.782Z,0.25
2018-02-13T03:06:39.798Z,0.33
2018-02-13T03:07:39.810Z,0.45
2018-02-13T03:08:39.823Z,0.43
2018-02-13T03:09:39.841Z,0.46
2018-02-13T03:10:39.849Z,0.49
2018-02-13T03:11:39.862Z,0.61
2018-02-13T03:12:39.875Z,0.43
2018-02-13T03:13:39.925Z,0.46
2018-02-13T03:14:39.900Z,0.49
2018-02-13T03:15:39.916Z,0.62
2018-02-13T03:16:39.927Z,0.53
2018-02-13T03:17:39.937Z,0.49
2018-02-13T03:18:39.953Z,0.57
2018-02-13T03:19:39.963Z,0.58
2018-02-13T03:20:39.980Z,0.61
2018-02-13T03:21:39.991Z,0.53
2018-02-13T03:22:40.003Z,0.49
2018-02-13T03:23:40.018Z,0.34
2018-02-13T03:24:40.030Z,0.38
2018-02-13T03:25:40.042Z,0.34
2018-02-13T03:26:40.062Z,0.30
2018-02-13T03:27:40.074Z,0.28
2018-02-13T03:28:40.084Z,0.33
2018-02-13T03:29:40.097Z,0.27
2018-02-13T03:30:40.109Z,0.33
2018-02-13T03:31:40.121Z,0.31
2018-02-13T03:32:40.131Z,0.31
2018-02-13T03:33:40.146Z,0.27
2018-02-13T03:34:40.156Z,0.34
2018-02-13T03:35:40.173Z,0.36
2018-02-13T03:36:40.184Z,0.39
2018-02-13T03:37:40.196Z,0.41
2018-02-13T03:38:40.210Z,0.36
2018-02-13T03:39:40.221Z,0.36
2018-02-13T03:40:40.232Z,0.45
2018-02-13T03:41:40.252Z,0.49
2018-02-13T03:42:40.260Z,0.51
2018-02-13T03:43:40.274Z,0.61
2018-02-13T03:44:40.290Z,0.62
2018-02-13T03:45:40.303Z,0.67
2018-02-13T03:46:40.312Z,0.72
2018-02-13T03:47:40.324Z,0.68
2018-02-13T03:48:40.336Z,0.65
2018-02-13T03:49:40.351Z,0.64
2018-02-13T03:50:40.360Z,0.61
2018-02-13T03:51:40.378Z,0.58
2018-02-13T03:52:40.386Z,0.49
2018-02-13T03:53:40.407Z,0.48
2018-02-13T03:54:40.419Z,0.48
2018-02-13T03:55:40.430Z,0.52
2018-02-13T03:56:40.440Z,0.58
2018-02-13T03:57:40.454Z,0.51
2018-02-13T03:58:40.468Z,0.49
2018-02-13T03:59:40.480Z,0.58
2018-02-13T04:00:40.490Z,0.60
2018-02-13T04:01:40.506Z,0.62
2018-02-13T04:02:40.515Z,0.61
2018-02-13T04:03:40.527Z,0.52
2018-02-13T04:04:40.546Z,0.57
2018-02-13T04:05:40.557Z,0.45
2018-02-13T04:06:40.567Z,0.46
2018-02-13T04:07:40.581Z,0.45
2018-02-13T04:08:40.593Z,0.34
2018-02-13T04:09:40.609Z,0.41
2018-02-13T04:10:40.619Z,0.27
2018-02-13T04:11:40.632Z,0.15
2018-02-13T04:12:40.647Z,0.18
2018-02-13T04:13:40.659Z,0.12
2018-02-13T04:14:40.672Z,0.09
2018-02-13T04:15:40.681Z,0.10
2018-02-13T04:16:40.696Z,0.12
2018-02-13T04:17:40.710Z,0.13
2018-02-13T04:18:40.719Z,0.12
2018-02-13T04:19:40.735Z,0.10
2018-02-13T04:20:40.748Z,0.12
2018-02-13T04:21:40.757Z,0.12
2018-02-13T04:22:40.774Z,0.16
2018-02-13T04:23:40.788Z,0.16
2018-02-13T04:24:40.797Z,0.28
2018-02-13T04:25:40.811Z,0.28
2018-02-13T04:26:40.820Z,0.34
2018-02-13T04:27:40.840Z,0.28
2018-02-13T04:28:40.848Z,0.41
2018-02-13T04:29:40.861Z,0.41
2018-02-13T04:30:40.874Z,0.45
2018-02-13T04:31:40.888Z,0.49
2018-02-13T04:32:40.899Z,0.48
2018-02-13T04:33:40.912Z,0.46
2018-02-13T04:34:40.924Z,0.46
2018-02-13T04:35:40.939Z,0.52
2018-02-13T04:36:40.952Z,0.46
2018-02-13T04:37:40.959Z,0.43
2018-02-13T04:38:40.978Z,0.39
2018-02-13T04:39:40.984Z,0.46
2018-02-13T04:40:40.999Z,0.43
2018-02-13T04:41:41.013Z,0.46
2018-02-13T04:42:41.022Z,0.62
2018-02-13T04:43:41.041Z,0.51
2018-02-13T04:44:41.051Z,0.65
2018-02-13T04:45:41.102Z,0.75
2018-02-13T04:46:41.074Z,0.75
2018-02-13T04:47:41.090Z,0.80
2018-02-13T04:48:41.102Z,0.75
2018-02-13T04:49:41.112Z,0.86
2018-02-13T04:50:41.125Z,0.72
2018-02-13T04:51:41.137Z,0.76
2018-02-13T04:52:41.149Z,0.67
2018-02-13T04:53:41.168Z,0.53
2018-02-13T04:54:41.174Z,0.53
2018-02-13T04:55:41.189Z,0.61
2018-02-13T04:56:41.219Z,0.65
2018-02-13T04:57:41.214Z,0.76
2018-02-13T04:58:41.236Z,0.75
2018-02-13T04:59:41.238Z,0.75
2018-02-13T05:00:41.253Z,0.78
2018-02-13T05:01:41.278Z,0.79
2018-02-13T05:02:41.277Z,0.80
2018-02-13T05:03:41.304Z,0.82
2018-02-13T05:04:41.307Z,0.83
2018-02-13T05:05:41.324Z,0.83
2018-02-13T05:06:41.334Z,0.83
2018-02-13T05:07:41.340Z,0.79
2018-02-13T05:08:41.353Z,0.90
2018-02-13T05:09:41.375Z,0.89
2018-02-13T05:10:41.394Z,0.96
2018-02-13T05:11:41.391Z,0.90
2018-02-13T05:12:41.407Z,0.92
2018-02-13T05:13:41.429Z,0.83
2018-02-13T05:14:41.436Z,0.76
2018-02-13T05:15:41.466Z,0.86
2018-02-13T05:16:41.457Z,0.78
2018-02-13T05:17:41.469Z,0.92
2018-02-13T05:18:41.481Z,0.97
2018-02-13T05:19:41.515Z,0.89
2018-02-13T05:20:41.509Z,0.82
2018-02-13T05:21:41.524Z,0.83
2018-02-13T05:22:41.534Z,0.82
2018-02-13T05:23:41.545Z,0.83
2018-02-13T05:24:41.572Z,0.89
2018-02-13T05:25:41.596Z,0.96
2018-02-13T05:26:41.582Z,0.86
2018-02-13T05:27:41.593Z,0.89
2018-02-13T05:28:41.611Z,0.79
2018-02-13T05:29:41.643Z,0.78
2018-02-13T05:30:41.649Z,0.70
2018-02-13T05:31:41.646Z,0.68
2018-02-13T05:32:41.663Z,0.61
2018-02-13T05:33:41.671Z,0.60
2018-02-13T05:34:41.684Z,0.65
2018-02-13T05:35:41.748Z,0.62
2018-02-13T05:36:41.709Z,0.58
2018-02-13T05:37:41.727Z,0.60
2018-02-13T05:38:41.735Z,0.53
2018-02-13T05:39:41.783Z,0.61
2018-02-13T05:40:41.803Z,0.61
2018-02-13T05:41:41.788Z,0.61
2018-02-13T05:42:41.796Z,0.65
2018-02-13T05:43:41.799Z,0.60
2018-02-13T05:44:41.815Z,0.53
2018-02-13T05:45:41.827Z,0.57
2018-02-13T05:46:41.839Z,0.58
2018-02-13T05:47:41.851Z,0.53
2018-02-13T05:48:41.867Z,0.60
2018-02-13T05:49:41.878Z,0.62
2018-02-13T05:50:41.892Z,0.46
2018-02-13T05:51:41.905Z,0.61
2018-02-13T05:52:41.914Z,0.49
2018-02-13T05:53:41.927Z,0.60
2018-02-13T05:54:41.939Z,0.51
2018-02-13T05:55:41.962Z,0.62
2018-02-13T05:56:41.974Z,0.61
2018-02-13T05:57:41.982Z,0.39
2018-02-13T05:58:41.990Z,0.39
2018-02-13T05:59:42.007Z,0.33
2018-02-13T06:00:42.028Z,0.30
2018-02-13T06:01:42.038Z,0.34
2018-02-13T06:02:42.054Z,0.41
2018-02-13T06:03:42.056Z,0.39
2018-02-13T06:04:42.070Z,0.41
2018-02-13T06:05:42.082Z,0.43
2018-02-13T06:06:42.092Z,0.27
2018-02-13T06:07:42.104Z,0.43
2018-02-13T06:08:42.124Z,0.25
2018-02-13T06:09:42.132Z,0.24
2018-02-13T06:10:42.145Z,0.13
2018-02-13T06:11:42.156Z,0.20
2018-02-13T06:12:42.172Z,0.16
2018-02-13T06:13:42.196Z,0.33
2018-02-13T06:14:42.195Z,0.27
2018-02-13T06:15:42.209Z,0.38
2018-02-13T06:16:42.221Z,0.38
2018-02-13T06:17:42.233Z,0.27
2018-02-13T06:18:42.250Z,0.41
2018-02-13T06:19:42.257Z,0.36
2018-02-13T06:20:42.273Z,0.39
2018-02-13T06:21:42.281Z,0.34
2018-02-13T06:22:42.295Z,0.33
2018-02-13T06:23:42.308Z,0.39
2018-02-13T06:24:42.321Z,0.38
2018-02-13T06:25:42.332Z,0.34
2018-02-13T06:26:42.347Z,0.34
2018-02-13T06:27:42.362Z,0.27
2018-02-13T06:28:42.372Z,0.18
2018-02-13T06:29:42.384Z,0.16
2018-02-13T06:30:42.398Z,0.20
2018-02-13T06:31:42.409Z,0.15
2018-02-13T06:32:42.421Z,0.23
2018-02-13T06:33:42.436Z,0.15
2018-02-13T06:34:42.453Z,0.20
2018-02-13T06:35:42.461Z,0.30
2018-02-13T06:36:42.476Z,0.39
2018-02-13T06:37:42.487Z,0.45
2018-02-13T06:38:42.495Z,0.46
2018-02-13T06:39:42.511Z,0.46
2018-02-13T06:40:42.523Z,0.48
2018-02-13T06:41:42.534Z,0.58
2018-02-13T06:42:42.549Z,0.57
2018-02-13T06:43:42.563Z,0.45
2018-02-13T06:44:42.572Z,0.43
2018-02-13T06:45:42.589Z,0.45
2018-02-13T06:46:42.598Z,0.51
2018-02-13T06:47:42.611Z,0.49
2018-02-13T06:48:42.628Z,0.58
2018-02-13T06:49:42.634Z,0.58
2018-02-13T06:50:42.648Z,0.57
2018-02-13T06:51:42.661Z,0.52
2018-02-13T06:52:42.678Z,0.52
2018-02-13T06:53:42.685Z,0.68
2018-02-13T06:54:42.708Z,0.70
2018-02-13T06:55:42.710Z,0.71
2018-02-13T06:56:42.723Z,0.80
2018-02-13T06:57:42.734Z,0.80
2018-02-13T06:58:42.750Z,0.78
2018-02-13T06:59:42.761Z,0.79
2018-02-13T07:00:42.776Z,0.88
2018-02-13T07:01:42.785Z,0.85
2018-02-13T07:02:42.799Z,0.89
2018-02-13T07:03:42.813Z,0.89
2018-02-13T07:04:42.832Z,0.89
2018-02-13T07:05:42.852Z,0.85
2018-02-13T07:06:42.848Z,0.82
2018-02-13T07:07:42.863Z,0.71
2018-02-13T07:08:42.877Z,0.83
2018-02-13T07:09:42.896Z,0.79
2018-02-13T07:10:42.901Z,0.79
2018-02-13T07:11:42.915Z,0.75
2018-02-13T07:12:42.925Z,0.78
2018-02-13T07:13:42.947Z,0.79
2018-02-13T07:14:42.952Z,0.78
2018-02-13T07:15:43.021Z,0.79
2018-02-13T07:16:42.984Z,0.79
2018-02-13T07:17:43.012Z,0.96
2018-02-13T07:18:43.012Z,0.83
2018-02-13T07:19:43.013Z,0.92
2018-02-13T07:20:43.028Z,0.86
2018-02-13T07:21:43.065Z,0.92
2018-02-13T07:22:43.088Z,0.80
2018-02-13T07:23:43.069Z,0.70
2018-02-13T07:24:43.082Z,0.71
2018-02-13T07:25:43.093Z,0.75
2018-02-13T07:26:43.107Z,0.76
2018-02-13T07:27:43.121Z,0.75
2018-02-13T07:28:43.132Z,0.79
2018-02-13T07:29:43.149Z,0.82
2018-02-13T07:30:43.159Z,0.80
2018-02-13T07:31:43.178Z,0.79
2018-02-13T07:32:43.187Z,0.75
2018-02-13T07:33:43.194Z,0.76
2018-02-13T07:34:43.216Z,0.70
2018-02-13T07:35:43.227Z,0.72
2018-02-13T07:36:43.235Z,0.79
2018-02-13T07:37:43.246Z,0.82
2018-02-13T07:38:43.261Z,0.78
2018-02-13T07:39:43.273Z,0.82
2018-02-13T07:40:43.304Z,0.79
2018-02-13T07:41:43.299Z,0.96
2018-02-13T07:42:43.318Z,1.06
2018-02-13T07:43:43.326Z,1.04
2018-02-13T07:44:43.340Z,1.01
2018-02-13T07:45:43.353Z,0.97
2018-02-13T07:46:43.362Z,0.97
2018-02-13T07:47:43.377Z,0.96
2018-02-13T07:48:43.387Z,0.94
2018-02-13T07:49:43.403Z,1.08
2018-02-13T07:50:43.415Z,1.19
2018-02-13T07:51:43.429Z,1.19
2018-02-13T07:52:43.441Z,1.36
2018-02-13T07:53:43.456Z,1.44
2018-02-13T07:54:43.465Z,1.54
2018-02-13T07:55:43.479Z,1.52
2018-02-13T07:56:43.494Z,1.71
2018-02-13T07:57:43.505Z,1.69
2018-02-13T07:58:43.528Z,1.79
2018-02-13T07:59:43.537Z,1.93
2018-02-13T08:00:43.546Z,1.87
2018-02-13T08:01:43.559Z,1.91
2018-02-13T08:02:43.569Z,2.08
2018-02-13T08:03:43.581Z,2.15
2018-02-13T08:04:43.595Z,2.08
2018-02-13T08:05:43.618Z,2.13
2018-02-13T08:06:43.624Z,2.28
2018-02-13T08:07:43.649Z,2.27
2018-02-13T08:08:43.651Z,2.27
2018-02-13T08:09:43.668Z,2.38
2018-02-13T08:10:43.676Z,2.35
2018-02-13T08:11:43.689Z,2.35
2018-02-13T08:12:43.706Z,2.44
2018-02-13T08:13:43.717Z,2.41
2018-02-13T08:14:43.732Z,2.46
2018-02-13T08:15:43.745Z,2.49
2018-02-13T08:16:43.755Z,2.48
2018-02-13T08:17:43.774Z,2.52
2018-02-13T08:18:43.797Z,2.55
2018-02-13T08:19:43.810Z,2.53
2018-02-13T08:20:43.812Z,2.52
2018-02-13T08:21:43.824Z,2.55
2018-02-13T08:22:43.845Z,2.55
2018-02-13T08:23:43.849Z,2.77
2018-02-13T08:24:43.929Z,2.79
2018-02-13T08:25:43.878Z,2.85
2018-02-13T08:26:43.890Z,2.91
2018-02-13T08:27:43.912Z,2.85
2018-02-13T08:28:43.922Z,2.88
2018-02-13T08:29:43.928Z,2.79
2018-02-13T08:30:43.990Z,2.95
2018-02-13T08:31:43.960Z,2.87
2018-02-13T08:32:43.971Z,2.89
2018-02-13T08:33:43.985Z,2.88
2018-02-13T08:34:44.023Z,2.94
2018-02-13T08:35:44.017Z,3.02
2018-02-13T08:36:44.028Z,3.05
2018-02-13T08:37:44.049Z,3.09
2018-02-13T08:38:44.063Z,3.09
2018-02-13T08:39:44.082Z,3.12
2018-02-13T08:40:44.084Z,3.21
2018-02-13T08:41:44.094Z,3.20
2018-02-13T08:42:44.112Z,3.16
2018-02-13T08:43:44.120Z,3.21
2018-02-13T08:44:44.133Z,3.23
2018-02-13T08:45:44.154Z,3.24
2018-02-13T08:46:44.165Z,3.13
2018-02-13T08:47:44.175Z,3.07
2018-02-13T08:48:44.193Z,3.09
2018-02-13T08:49:44.205Z,3.09
2018-02-13T08:50:44.221Z,3.20
2018-02-13T08:51:44.233Z,3.27
2018-02-13T08:52:44.246Z,3.21
2018-02-13T08:53:44.264Z,3.33
2018-02-13T08:54:44.276Z,3.40
2018-02-13T08:55:44.310Z,3.49
2018-02-13T08:56:44.301Z,3.50
2018-02-13T08:57:44.317Z,3.43
2018-02-13T08:58:44.333Z,3.54
2018-02-13T08:59:44.347Z,3.64
2018-02-13T09:00:44.360Z,3.61
2018-02-13T09:01:44.425Z,3.57
2018-02-13T09:02:44.389Z,3.65
2018-02-13T09:03:44.405Z,3.64
2018-02-13T09:04:44.420Z,3.61
2018-02-13T09:05:44.431Z,3.64
2018-02-13T09:06:44.475Z,3.68
2018-02-13T09:07:44.458Z,3.75
2018-02-13T09:08:44.479Z,3.76
2018-02-13T09:09:44.488Z,3.75
2018-02-13T09:10:44.505Z,3.82
2018-02-13T09:11:44.516Z,3.86
2018-02-13T09:12:44.530Z,3.90
2018-02-13T09:13:44.544Z,3.98
2018-02-13T09:14:44.639Z,4.04
2018-02-13T09:15:44.574Z,3.98
2018-02-13T09:16:44.585Z,4.03
2018-02-13T09:17:44.601Z,3.97
2018-02-13T09:18:44.618Z,4.12
2018-02-13T09:19:44.687Z,4.15
2018-02-13T09:20:44.646Z,4.12
2018-02-13T09:21:44.666Z,4.06
2018-02-13T09:22:44.678Z,4.14
2018-02-13T09:23:44.689Z,4.18
2018-02-13T09:24:44.704Z,4.16
2018-02-13T09:25:44.718Z,4.28
2018-02-13T09:26:44.736Z,4.21
2018-02-13T09:27:44.748Z,4.08
2018-02-13T09:28:44.764Z,4.16
2018-02-13T09:29:44.776Z,4.15
2018-02-13T09:30:44.791Z,4.29
2018-02-13T09:31:44.804Z,4.26
2018-02-13T09:32:44.820Z,4.22
2018-02-13T09:33:44.835Z,4.21
2018-02-13T09:34:44.860Z,4.21
2018-02-13T09:35:44.865Z,4.15
2018-02-13T09:36:44.879Z,4.33
2018-02-13T09:37:44.894Z,4.28
2018-02-13T09:38:44.907Z,4.34
2018-02-13T09:39:44.921Z,4.29
2018-02-13T09:40:44.934Z,4.37
2018-02-13T09:41:44.951Z,4.36
2018-02-13T09:42:44.965Z,4.47
2018-02-13T09:43:44.986Z,4.40
2018-02-13T09:44:44.995Z,4.44
2018-02-13T09:45:45.015Z,4.50
2018-02-13T09:46:45.026Z,4.40
2018-02-13T09:47:45.042Z,4.46
2018-02-13T09:48:45.058Z,4.55
2018-02-13T09:49:45.073Z,4.55
2018-02-13T09:50:45.084Z,4.47
2018-02-13T09:51:45.097Z,4.50
2018-02-13T09:52:45.114Z,4.58
2018-02-13T09:53:45.133Z,4.58
2018-02-13T09:54:45.142Z,4.52
2018-02-13T09:55:45.192Z,4.57
2018-02-13T09:56:45.172Z,4.58
2018-02-13T09:57:45.189Z,4.57
2018-02-13T09:58:45.202Z,4.58
2018-02-13T09:59:45.217Z,4.58
2018-02-13T10:00:45.233Z,4.65
2018-02-13T10:01:45.249Z,4.67
2018-02-13T10:02:45.263Z,4.64
2018-02-13T10:03:45.279Z,4.67
2018-02-13T10:04:45.298Z,4.79
2018-02-13T10:05:45.306Z,4.91
2018-02-13T10:06:45.320Z,4.91
2018-02-13T10:07:45.336Z,4.92
2018-02-13T10:08:45.351Z,4.86
2018-02-13T10:09:45.367Z,4.86
2018-02-13T10:10:45.382Z,4.92
2018-02-13T10:11:45.396Z,4.98
2018-02-13T10:12:45.413Z,4.98
2018-02-13T10:13:45.426Z,4.95
2018-02-13T10:14:45.440Z,4.99
2018-02-13T10:15:45.463Z,5.04
2018-02-13T10:16:45.475Z,4.99
2018-02-13T10:17:45.489Z,5.09
2018-02-13T10:18:45.499Z,5.01
2018-02-13T10:19:45.516Z,4.88
2018-02-13T10:20:45.529Z,5.01
2018-02-13T10:21:45.546Z,5.07
2018-02-13T10:22:45.560Z,5.09
2018-02-13T10:23:45.573Z,5.07
2018-02-13T10:24:45.590Z,5.07
2018-02-13T10:25:45.606Z,5.14
2018-02-13T10:26:45.619Z,5.23
2018-02-13T10:27:45.644Z,5.13
2018-02-13T10:28:45.651Z,5.17
2018-02-13T10:29:45.667Z,5.14
2018-02-13T10:30:45.682Z,5.19
2018-02-13T10:31:45.695Z,5.16
2018-02-13T10:32:45.707Z,5.16
2018-02-13T10:33:45.727Z,5.16
2018-02-13T10:34:45.742Z,5.12
2018-02-13T10:35:45.789Z,5.22
2018-02-13T10:36:45.772Z,5.30
2018-02-13T10:37:45.783Z,5.25
2018-02-13T10:38:45.806Z,5.32
2018-02-13T10:39:45.817Z,5.37
2018-02-13T10:40:45.831Z,5.32
2018-02-13T10:41:45.851Z,5.13
2018-02-13T10:42:45.860Z,5.22
2018-02-13T10:43:45.877Z,5.38
2018-02-13T10:44:45.891Z,5.22
2018-02-13T10:45:45.910Z,5.17
2018-02-13T10:46:45.928Z,5.25
2018-02-13T10:47:45.941Z,5.32
2018-02-13T10:48:45.953Z,5.43
2018-02-13T10:49:46.031Z,5.46
2018-02-13T10:50:45.981Z,5.48
2018-02-13T10:51:46.009Z,5.57
2018-02-13T10:52:46.019Z,5.56
2018-02-13T10:53:46.048Z,5.60
2018-02-13T10:54:46.045Z,5.57
2018-02-13T10:55:46.067Z,5.53
2018-02-13T10:56:46.073Z,5.59
2018-02-13T10:57:46.106Z,5.59
2018-02-13T10:58:46.110Z,5.71
2018-02-13T10:59:46.126Z,5.70
2018-02-13T11:00:46.137Z,5.63
2018-02-13T11:01:46.153Z,5.66
2018-02-13T11:02:46.165Z,5.68
2018-02-13T11:03:46.182Z,5.70
2018-02-13T11:04:46.195Z,5.82
2018-02-13T11:05:46.222Z,5.81
2018-02-13T11:06:46.231Z,5.77
2018-02-13T11:07:46.265Z,5.82
2018-02-13T11:08:46.264Z,5.73
2018-02-13T11:09:46.281Z,5.68
2018-02-13T11:10:46.295Z,5.71
2018-02-13T11:11:46.309Z,5.66
2018-02-13T11:12:46.325Z,5.55
2018-02-13T11:13:46.336Z,5.59
2018-02-13T11:14:46.351Z,5.55
2018-02-13T11:15:46.371Z,5.53
2018-02-13T11:16:46.383Z,5.45
2018-02-13T11:17:46.396Z,5.55
2018-02-13T11:18:46.413Z,5.59
2018-02-13T11:19:46.471Z,5.67
2018-02-13T11:20:46.446Z,5.64
2018-02-13T11:21:46.459Z,5.71
2018-02-13T11:22:46.499Z,5.74
2018-02-13T11:23:46.487Z,5.70
2018-02-13T11:24:46.521Z,5.78
2018-02-13T11:25:46.612Z,5.89
2018-02-13T11:26:46.549Z,5.89
2018-02-13T11:27:46.560Z,5.88
2018-02-13T11:28:46.593Z,5.91
2018-02-13T11:29:46.594Z,5.89
2018-02-13T11:30:46.602Z,5.83
2018-02-13T11:31:46.612Z,5.96
2018-02-13T11:32:46.638Z,5.89
2018-02-13T11:33:46.656Z,6.01
2018-02-13T11:34:46.658Z,5.98
2018-02-13T11:35:46.673Z,6.00
2018-02-13T11:36:46.692Z,6.07
2018-02-13T11:37:46.707Z,5.95
2018-02-13T11:38:46.723Z,6.00
2018-02-13T11:39:46.738Z,6.13
2018-02-13T11:40:46.752Z,6.14
2018-02-13T11:41:46.768Z,6.22
2018-02-13T11:42:46.797Z,6.25
2018-02-13T11:43:46.803Z,6.26
2018-02-13T11:44:46.816Z,6.18
2018-02-13T11:45:46.834Z,6.22
2018-02-13T11:46:46.844Z,6.16
2018-02-13T11:47:46.874Z,6.21
2018-02-13T11:48:46.882Z,6.14
2018-02-13T11:49:46.902Z,6.26
2018-02-13T11:50:46.909Z,6.22
2018-02-13T11:51:46.938Z,6.29
2018-02-13T11:52:46.946Z,6.25
2018-02-13T11:53:46.956Z,6.19
2018-02-13T11:54:46.975Z,6.07
2018-02-13T11:55:46.986Z,5.98
2018-02-13T11:56:47.001Z,6.00
2018-02-13T11:57:47.019Z,6.06
2018-02-13T11:58:47.030Z,6.06
2018-02-13T11:59:47.056Z,6.10
2018-02-13T12:00:47.065Z,6.19
2018-02-13T12:01:47.079Z,6.19
2018-02-13T12:02:47.163Z,6.22
2018-02-13T12:03:47.120Z,6.28
2018-02-13T12:04:47.129Z,6.28
2018-02-13T12:05:47.145Z,6.33
2018-02-13T12:06:47.172Z,6.28
2018-02-13T12:07:47.175Z,6.41
2018-02-13T12:08:47.193Z,6.38
2018-02-13T12:09:47.230Z,6.25
2018-02-13T12:10:47.228Z,6.35
2018-02-13T12:11:47.242Z,6.43
2018-02-13T12:12:47.325Z,6.40
2018-02-13T12:13:47.280Z,6.58
2018-02-13T12:14:47.303Z,6.58
2018-02-13T12:15:47.347Z,6.59
2018-02-13T12:16:47.316Z,6.54
2018-02-13T12:17:47.329Z,6.58
2018-02-13T12:18:47.352Z,6.54
2018-02-13T12:19:47.363Z,6.56
2018-02-13T12:20:47.381Z,6.58
2018-02-13T12:21:47.410Z,6.58
2018-02-13T12:22:47.414Z,6.59
2018-02-13T12:23:47.483Z,6.65
2018-02-13T12:24:47.445Z,6.54
2018-02-13T12:25:47.458Z,6.51
2018-02-13T12:26:47.481Z,6.63
2018-02-13T12:27:47.488Z,6.54
2018-02-13T12:28:47.507Z,6.63
2018-02-13T12:29:47.525Z,6.69
2018-02-13T12:30:47.538Z,6.73
2018-02-13T12:31:47.556Z,6.62
2018-02-13T12:32:47.570Z,6.68
2018-02-13T12:33:47.587Z,6.71
2018-02-13T12:34:47.663Z,6.80
2018-02-13T12:35:47.621Z,6.84
2018-02-13T12:36:47.636Z,6.79
2018-02-13T12:37:47.652Z,6.89
2018-02-13T12:38:47.668Z,6.79
2018-02-13T12:39:47.683Z,6.84
2018-02-13T12:40:47.699Z,6.73
2018-02-13T12:41:47.715Z,6.76
2018-02-13T12:42:47.732Z,6.81
2018-02-13T12:43:47.744Z,6.76
2018-02-13T12:44:47.767Z,6.69
2018-02-13T12:45:47.777Z,6.68
2018-02-13T12:46:47.794Z,6.71
2018-02-13T12:47:47.813Z,6.62
2018-02-13T12:48:47.827Z,6.58
2018-02-13T12:49:47.846Z,6.66
2018-02-13T12:50:47.871Z,6.68
2018-02-13T12:51:47.879Z,6.69
2018-02-13T12:52:47.890Z,6.68
2018-02-13T12:53:47.913Z,6.66
2018-02-13T12:54:47.921Z,6.72
2018-02-13T12:55:47.937Z,6.73
2018-02-13T12:56:47.961Z,6.83
2018-02-13T12:57:47.981Z,6.76
2018-02-13T12:58:47.989Z,6.81
2018-02-13T12:59:48.001Z,6.84
2018-02-13T13:00:48.018Z,6.89
2018-02-13T13:01:48.043Z,6.81
2018-02-13T13:02:48.054Z,6.76
2018-02-13T13:03:48.068Z,6.68
2018-02-13T13:04:48.083Z,6.81
2018-02-13T13:05:48.102Z,6.66
2018-02-13T13:06:48.121Z,6.76
2018-02-13T13:07:48.131Z,6.68
2018-02-13T13:08:48.147Z,6.77
2018-02-13T13:09:48.168Z,6.86
2018-02-13T13:10:48.188Z,6.84
2018-02-13T13:11:48.196Z,6.76
2018-02-13T13:12:48.224Z,6.71
2018-02-13T13:13:48.234Z,6.73
2018-02-13T13:14:48.244Z,6.71
2018-02-13T13:15:48.260Z,6.66
2018-02-13T13:16:48.278Z,6.72
2018-02-13T13:17:48.295Z,6.69
2018-02-13T13:18:48.312Z,6.54